메인 페이지
METAR-TAF:

METAR-TAF

공항 :

두알라, 카메룬

위도: 04-00N, 경도: 009-44E, 고도: 10m

현재 날씨관측

예보는 44분 전, 17:00시(UTC)에 발표되었습니다.
여러 방향의 바람 4kt
온도 29°C
습도 79%
기압 1011 hPa
시정 10km 이상
고도 1600ft 상공 구름 많음
고도 2000ft 상공 구름 조금, 적란운.

METAR: FKKD 311700Z VRB04KT 9999 BKN016 FEW020CB 29/25 Q1011 TEMPO TS

시각: 18:44 (17:44 UTC)

예보

예보는 44분 전, 17:00시(UTC)에 발표되었습니다.
예보 대상 시간: 31일 18시부터 01일 24시까지 (UTC)
여러 방향의 바람 6kt
시정 10km 이상
고도 1600ft 상공 구름 많음
고도 2000ft 상공 구름 조금, 적란운.
일시적
01일 00시부터 01일 06시까지 (UTC)
고도 1300ft 상공 구름 많음
고도 1600ft 상공 구름 조금, 적란운.
뇌우
일시적
01일 00시부터 01일 04시까지 (UTC)
시정: 4000m
뇌우, 비

TAF: FKKD 311700Z 3118/0124 VRB06KT 9999 BKN016 FEW020CB TEMPO 0100/0106 TS BKN013 FEW016CB TEMPO 0100/0104 4000 TSRA

4,000개 이상의 공항 관측 자료 및 예보 (METAR 및 TAF 보고).

지도상에서 검색 가능한 기상관측소가 노란 점과 빨간 점으로 표시되어 있습니다.

기상관측소 명을 보려면 표시 위로 마우스를 이동하세요.

날씨 관측과 예보를 보려면 클릭하세요.

지도 변경 : 확대하려면 엑스 표시가 있는 녹색 버튼, 축소하려면 빼기 표시가 있는 녹색 버튼, 다음 페이지의 지도를 보려면 녹색 화살표를 클릭하세요.


METAR-TAF: